Home > Products > Valid Products > TAF

000
FTUS43 KAPX 312300
TAFAPN
TAF
KAPN 312330Z 0100/0124 VRB03KT P6SM SCT090
     FM011800 10007KT P6SM FEW060=



000
FTUS43 KAPX 312300
TAFTVC
TAF
KTVC 312330Z 0100/0124 VRB03KT P6SM FEW080
     FM011600 36004KT P6SM SCT060=



000
FTUS43 KAPX 312300
TAFPLN
TAF
KPLN 312330Z 0100/0124 VRB03KT P6SM FEW080
     FM010900 00000KT 4SM BR SKC
     FM011300 00000KT P6SM FEW080
     FM011700 11005KT P6SM FEW060=



000
FTUS43 KAPX 311800 AAA
TAFPLN
TAF AMD
KPLN 311837Z 3119/0118 26010KT P6SM FEW050
      TEMPO 3120/3122 BKN070
     FM010000 00000KT P6SM SCT050
     FM011000 00000KT 4SM MIFG FEW090
     FM011400 12006KT P6SM FEW090=



000
FTUS43 KAPX 311700
TAFTVC
TAF
KTVC 311720Z 3118/0118 27009KT P6SM SCT050
     FM311900 04007KT P6SM FEW050
     FM010100 00000KT P6SM SCT050
     FM011400 VRB03KT P6SM FEW090=



000
FTUS43 KAPX 311700
TAFPLN
TAF
KPLN 311720Z 3118/0118 26010KT P6SM FEW050
     FM010000 00000KT P6SM SCT050
     FM011000 00000KT 4SM MIFG FEW090
     FM011400 12006KT P6SM FEW090=



000
FTUS43 KAPX 311700
TAFAPN
TAF
KAPN 311720Z 3118/0118 28007KT P6SM SCT040
     FM312000 12007KT P6SM VCSH BKN045
     FM010000 VRB04KT P6SM SCT050
     FM011400 15005KT P6SM FEW080=



000
FTUS43 KAPX 311100
TAFPLN
TAF
KPLN 311120Z 3112/0112 VRB03KT P6SM SCT200
     FM311500 VRB04KT P6SM FEW050
     FM311800 27007KT P6SM FEW060 SCT200
     FM010000 00000KT P6SM SCT070=



000
FTUS43 KAPX 311100
TAFTVC
TAF
KTVC 311120Z 3112/0112 VRB03KT P6SM SCT200
     FM311500 31006KT P6SM SCT050 SCT200
     FM010100 VRB03KT P6SM BKN070
     FM010500 00000KT P6SM SCT070=



000
FTUS43 KAPX 311100
TAFAPN
TAF
KAPN 311120Z 3112/0112 VRB03KT P6SM SCT200
     FM311500 22006KT P6SM SCT060
     FM311800 21007KT P6SM VCSH SCT060 BKN090
     FM312300 14006KT P6SM VCSH SCT060 BKN090
     FM010200 00000KT P6SM SCT070=



000
FTUS43 KAPX 310900 AAA
TAFAPN
TAF AMD
KAPN 310943Z 3110/0106 00000KT P6SM OVC060
     FM311100 VRB03KT P6SM SCT200
     FM311500 22006KT P6SM SCT060
     FM311800 21007KT P6SM VCSH SCT060 BKN090
     FM312300 14006KT P6SM VCSH SCT060 BKN090
     FM010200 00000KT P6SM SCT070=



000
FTUS43 KAPX 310900 AAA
TAFPLN
TAF AMD
KPLN 310940Z 3110/0106 02004KT P6SM SCT200
      TEMPO 3110/3112 2SM BR
     FM311500 VRB04KT P6SM SCT050
     FM311800 26007KT P6SM SCT060 SCT200
     FM010000 VRB03KT P6SM SCT070=



000
FTUS43 KAPX 310900 CCA
TAFTVC
TAF COR
KTVC 310937Z 3110/0106 00000KT P6SM SCT200
     FM311200 28005KT P6SM SCT060 SCT200
     FM010100 VRB03KT P6SM BKN070
     FM010500 00000KT P6SM SCT070=



000
FTUS43 KAPX 310900 AAA
TAFTVC
TAF AMD
KTVC 310936Z 3110/0106 00000KT P6SM SCT200
     FM311200 28005KT P6SM SCT060 SCT200
     FM010100 VRB03KT P6SM BKN070
     FM010500 00000KT 2SM BR SCT070=



000
FTUS43 KAPX 310500
TAFPLN
TAF
KPLN 310539Z 3106/0106 VRB03KT P6SM VCSH BKN070
     FM311200 VRB04KT P6SM BKN060
     FM311400 24011KT P6SM BKN080
     FM311800 26007KT P6SM SCT040 SCT200
     FM010000 VRB03KT P6SM SCT060 SCT200=



000
FTUS43 KAPX 310500
TAFTVC
TAF
KTVC 310539Z 3106/0106 VRB04KT P6SM BKN070
     FM311200 28005KT P6SM SCT080 SCT200
     FM010200 VRB03KT P6SM BKN050 BKN120=



000
FTUS43 KAPX 310500
TAFAPN
TAF
KAPN 310539Z 3106/0106 VRB03KT P6SM VCSH BKN060
     FM311400 23011KT P6SM BKN080
     FM311800 21005KT P6SM VCSH SCT050 BKN090
     FM312200 VRB03KT P6SM SCT040 SCT200
     FM010400 VRB04KT P6SM BKN050=



000
FTUS43 KAPX 310200 AAA
TAFAPN
TAF AMD
KAPN 310210Z 3102/3124 VRB03KT P6SM VCSH BKN060
      TEMPO 3102/3103 VRB03KT 6SM -SHRA BKN070
     FM310600 VRB03KT P6SM BKN060
     FM311400 23011KT P6SM BKN080
     FM311800 21005KT P6SM VCSH SCT050 BKN090=



000
FTUS43 KAPX 302300
TAFPLN
TAF
KPLN 302332Z 3100/3124 30008KT 5SM -SHRA SCT030 OVC060
     FM310100 VRB03KT P6SM SCT090
     FM311200 VRB04KT P6SM BKN060
     FM311400 24011KT P6SM BKN080
     FM311800 26007KT P6SM VCSH SCT040 OVC080=



000
FTUS43 KAPX 302300
TAFTVC
TAF
KTVC 302332Z 3100/3124 33005KT P6SM FEW040 BKN080
     FM310100 VRB04KT 6SM -SHRA SCT040 OVC060
     FM310300 VRB04KT P6SM SCT090
     FM310800 VRB04KT P6SM BKN120
     FM311800 24011KT P6SM SCT050 BKN120=



000
FTUS43 KAPX 302300
TAFAPN
TAF
KAPN 302332Z 3100/3124 VRB03KT P6SM VCSH BKN060
     FM310200 VRB03KT P6SM SCT070
     FM310600 VRB03KT P6SM BKN060
     FM311400 23011KT P6SM BKN080
     FM311800 21005KT P6SM VCSH SCT050 BKN090=



000
FTUS43 KAPX 301700
TAFAPN
TAF
KAPN 301723Z 3018/3118 32008KT P6SM SCT028 BKN250
     FM310000 VRB03KT P6SM -SHRA BKN080
     FM311200 24011KT P6SM BKN080=



000
FTUS43 KAPX 301700
TAFPLN
TAF
KPLN 301723Z 3018/3118 30008KT P6SM FEW050 BKN200
     FM310100 VRB03KT P6SM -SHRA BKN090
     FM311200 24011KT P6SM BKN080=



000
FTUS43 KAPX 301700
TAFTVC
TAF
KTVC 301723Z 3018/3118 34008KT P6SM SCT030
     FM310000 VRB03KT P6SM -SHRA BKN070
     FM311200 24011KT P6SM SCT080=



000
FTUS43 KAPX 301500 AAB
TAFAPN
TAF AMD
KAPN 301541Z 3016/3112 32008KT P6SM SCT025 BKN250
      TEMPO 3016/3019 BKN028
     FM302000 VRB03KT P6SM BKN080=



000
FTUS43 KAPX 301500 AAB
TAFTVC
TAF AMD
KTVC 301540Z 3016/3112 34008KT P6SM SCT025
      TEMPO 3016/3019 BKN028
     FM310000 00000KT P6SM BKN070=



000
FTUS43 KAPX 301400 AAA
TAFAPN
TAF AMD
KAPN 301404Z 3014/3112 30006KT P6SM BKN008
     FM301600 32008KT P6SM SCT050 BKN200
     FM302100 VRB03KT P6SM BKN120=



000
FTUS43 KAPX 301200 AAA
TAFTVC
TAF AMD
KTVC 301258Z 3013/3112 VRB03KT P6SM BKN008
      TEMPO 3013/3016 SCT008
     FM301600 34008KT P6SM FEW060 SCT250
     FM310200 00000KT P6SM BKN070=



000
FTUS43 KAPX 301100
TAFPLN
TAF
KPLN 301122Z 3012/3112 31004KT P6SM SKC
     FM301400 30008KT P6SM FEW050 BKN170
     FM310100 00000KT P6SM BKN090=



000
FTUS43 KAPX 301100
TAFAPN
TAF
KAPN 301122Z 3012/3112 30006KT P6SM SKC
     FM301400 32008KT P6SM SCT050 BKN200
     FM302100 VRB03KT P6SM BKN120=



000
FTUS43 KAPX 301100
TAFTVC
TAF
KTVC 301122Z 3012/3112 00000KT P6SM SKC
     FM301400 34008KT P6SM FEW060 SCT250
     FM310200 00000KT P6SM BKN070=



000
FTUS43 KAPX 300700 AAA
TAFPLN
TAF AMD
KPLN 300726Z 3007/3106 00000KT P6SM SKC
      TEMPO 3008/3010 2SM BR SCT002
     FM301000 31004KT 2SM BR BKN002
     FM301400 29008KT P6SM SCT080 BKN200
     FM302200 27008KT P6SM BKN100
     FM310100 00000KT P6SM BKN070=



000
FTUS43 KAPX 300700 AAA
TAFAPN
TAF AMD
KAPN 300726Z 3007/3106 00000KT P6SM SKC
      TEMPO 3008/3010 2SM BR SCT002
     FM301000 00000KT 2SM BR BKN002
     FM301200 30006KT P6SM BKN005
     FM301400 32008KT P6SM FEW025 BKN250
     FM302100 VRB03KT P6SM BKN120=



000
FTUS43 KAPX 300500
TAFAPN
TAF
KAPN 300520Z 3006/3106 00000KT P6SM SKC
      TEMPO 3006/3008 2SM BR SCT002
     FM300800 00000KT 2SM BR BKN002
     FM301100 30006KT P6SM BKN008
     FM301500 32008KT P6SM FEW025 BKN250
     FM302100 VRB03KT P6SM BKN120=



000
FTUS43 KAPX 300500
TAFTVC
TAF
KTVC 300520Z 3006/3106 33003KT P6SM SCT070
     FM301100 00000KT 6SM BR SCT002
     FM301400 30008KT P6SM FEW060 SCT250
     FM302200 30008KT P6SM BKN080
     FM310200 00000KT P6SM BKN070=



000
FTUS43 KAPX 300500
TAFPLN
TAF
KPLN 300520Z 3006/3106 26003KT P6SM SKC
      TEMPO 3006/3008 2SM BR SCT002
     FM300800 31004KT 2SM BR BKN002
     FM301400 29008KT P6SM SCT080 BKN200
     FM302200 27008KT P6SM BKN100
     FM310100 00000KT P6SM BKN070=



000
FTUS43 KAPX 300100 AAB
TAFAPN
TAF AMD
KAPN 300130Z 3002/3024 VRB05KT P6SM VCSH BKN050
     FM300400 31004KT P6SM FEW040 SCT250
     FM301100 30006KT P6SM BKN008
     FM301500 32008KT P6SM FEW025 BKN250
     FM302100 VRB03KT P6SM BKN120=



000
FTUS43 KAPX 300000 AAA
TAFAPN
TAF AMD
KAPN 300033Z 3001/3024 VRB05KT 4SM TSRA BKN040CB
     FM300130 VRB04KT P6SM FEW060
     FM300300 31004KT P6SM FEW040 SCT250
     FM301100 30006KT P6SM BKN008
     FM301500 32008KT P6SM FEW025 BKN250
     FM302100 VRB03KT P6SM BKN120=



000
FTUS43 KAPX 292300
TAFAPN
TAF
KAPN 292329Z 3000/3024 VRB05KT P6SM SCT060
      TEMPO 3000/3002 6SM -SHRA BKN040
     FM300300 31004KT P6SM FEW040 SCT250
     FM301100 30006KT P6SM BKN008
     FM301500 32008KT P6SM FEW025 BKN250
     FM302100 VRB03KT P6SM BKN120=



000
FTUS43 KAPX 292300
TAFPLN
TAF
KPLN 292329Z 3000/3024 30008KT P6SM FEW040
     FM300200 32004KT P6SM FEW070 SCT250
     FM300900 31004KT P6SM BKN005
     FM301400 29008KT P6SM SCT080 BKN250
     FM302200 27008KT P6SM BKN100=



000
FTUS43 KAPX 292300
TAFTVC
TAF
KTVC 292329Z 3000/3024 32005KT P6SM SCT050 SCT200
     FM301100 30004KT P6SM SCT010 SCT250
     FM301400 30008KT P6SM FEW060 SCT250
     FM302200 30008KT P6SM BKN080=



000
FTUS43 KAPX 292000 AAB
TAFPLN
TAF AMD
KPLN 292051Z 2921/3018 31009KT P6SM SCT035
     FM292300 33008KT P6SM FEW060
     FM300200 32004KT P6SM FEW070 SCT250=



000
FTUS43 KAPX 291800 AAA
TAFPLN
TAF AMD
KPLN 291848Z 2919/3018 31009KT P6SM BKN013
      TEMPO 2919/2921 SCT015
     FM292300 33008KT P6SM FEW060
     FM300200 32004KT P6SM FEW070 SCT250=



000
FTUS43 KAPX 291800 AAA
TAFTVC
TAF AMD
KTVC 291813Z 2918/3018 35008KT P6SM VCSH SCT040 OVC060
     FM292300 32005KT P6SM SCT050 SCT200=



000
FTUS43 KAPX 291800 AAA
TAFAPN
TAF AMD
KAPN 291812Z 2918/3018 30007KT P6SM VCTS SCT024CB BKN040
     FM292200 VRB05KT P6SM SCT060
     FM300300 31004KT P6SM SCT250=



000
FTUS43 KAPX 291700
TAFPLN
TAF
KPLN 291720Z 2918/3018 31009KT P6SM BKN013
      TEMPO 2918/2919 SCT015
     FM292300 33008KT P6SM FEW060
     FM300200 32004KT P6SM FEW070 SCT250=



000
FTUS43 KAPX 291700
TAFTVC
TAF
KTVC 291720Z 2918/3018 30008G15KT P6SM VCSH SCT040 OVC060
     FM292300 32005KT P6SM SCT050 SCT200=



000
FTUS43 KAPX 291700
TAFAPN
TAF
KAPN 291720Z 2918/3018 30007KT P6SM VCSH SCT024 BKN040
     FM292200 VRB05KT P6SM SCT060
     FM300300 31004KT P6SM SCT250=



000
FTUS43 KAPX 291500 AAA
TAFAPN
TAF AMD
KAPN 291509Z 2915/3012 29006KT P6SM BKN050
      TEMPO 2916/2918 BKN015
     FM291800 30007KT P6SM VCTS SCT050CB BKN080
     FM292200 VRB05KT P6SM SCT060
     FM300300 31004KT P6SM SCT250=



000
FTUS43 KAPX 291500 AAB
TAFPLN
TAF AMD
KPLN 291508Z 2915/3012 31009KT P6SM BKN013 BKN060
      TEMPO 2915/2919 SCT040
     FM292300 33008KT P6SM FEW060
     FM300200 32004KT P6SM FEW070 SCT250=



000
FTUS43 KAPX 291200 AAA
TAFPLN
TAF AMD
KPLN 291205Z 2912/3012 28005KT P6SM BKN009 BKN060
      TEMPO 2913/2915 SCT040
     FM291600 28008G15KT P6SM SCT050
     FM292300 33008KT P6SM FEW060
     FM300200 32004KT P6SM FEW070 SCT250=



000
FTUS43 KAPX 291100
TAFPLN
TAF
KPLN 291120Z 2912/3012 28005KT P6SM BKN012 BKN060
      TEMPO 2913/2915 SCT040
     FM291600 28008G15KT P6SM SCT050
     FM292300 33008KT P6SM FEW060
     FM300200 32004KT P6SM FEW070 SCT250=



000
FTUS43 KAPX 291100
TAFAPN
TAF
KAPN 291120Z 2912/3012 29006KT P6SM BKN050
      TEMPO 2912/2914 BKN025
     FM291600 30007KT P6SM VCTS SCT050CB BKN080
     FM292200 VRB05KT P6SM SCT060
     FM300300 31004KT P6SM SCT250=



000
FTUS43 KAPX 291100
TAFTVC
TAF
KTVC 291120Z 2912/3012 28006KT P6SM BKN060
      TEMPO 2912/2914 BKN025
     FM291600 30008G15KT P6SM VCSH SCT040 OVC060
     FM292300 30010KT P6SM SCT050 SCT200=



000
FTUS43 KAPX 291000 AAA
TAFPLN
TAF AMD
KPLN 291055Z 2911/3006 29005KT P6SM BKN012 BKN060
      TEMPO 2913/2915 SCT040
     FM291500 28010KT P6SM SCT050
     FM292300 33008KT P6SM SCT060
     FM300200 32004KT P6SM FEW050 SCT250=



000
FTUS43 KAPX 290500
TAFTVC
TAF
KTVC 290538Z 2906/3006 28004KT P6SM SCT060
     FM291100 28006KT P6SM BKN060
     FM291600 30008KT P6SM VCTS SCT040CB OVC060
     FM292300 30010KT P6SM SCT050 SCT200=



000
FTUS43 KAPX 290500
TAFPLN
TAF
KPLN 290538Z 2906/3006 28005KT P6SM SCT060
     FM291500 28010KT P6SM BKN050
     FM292300 33008KT P6SM BKN050
     FM300200 32004KT P6SM FEW050 SCT250=



000
FTUS43 KAPX 290500
TAFAPN
TAF
KAPN 290538Z 2906/3006 28004KT P6SM SCT060
     FM290800 29006KT P6SM BKN050
     FM292200 32004KT P6SM SCT060
     FM300300 31004KT P6SM FEW060 SCT250=



    US Dept of Commerce
    National Oceanic and Atmospheric Administration
    National Weather Service
    1325 East West Highway
    Silver Spring, MD 20910
    Page Author: NWS Internet Services Team
Disclaimer
Information Quality
Credits
Glossary
Privacy Policy
Freedom of Information Act (FOIA)
About Us
Career Opportunities